Main page
METAR-TAF:

METAR-TAF

Airports :

Kullu–Manali Airport

Kullu / Manali, India

latitude: 31-52-36N, longitude: 77-09-16E, elevation: 1089 m

Current weather observation

The report was made 4 hours and 23 minutes ago, at 05:00 UTC
Calm wind
Temperature 23°C
Humidity 69%
Pressure 1015 hPa
Visibility: 6000 m
Few clouds at a height of 2000 ft

METAR: VIBR 240500Z 00000KT 6000 FEW020 23/17 Q1015

Time: 14:53 (09:23 UTC)

Forecast

The report was made 4 hours and 23 minutes ago, at 05:00 UTC
Forecast valid from 24 at 06 UTC to 24 at 15 UTC
Wind kt from the North
Visibility: 4000 m
Scattered clouds at a height of 2000 ft
Scattered clouds at a height of 5000 ft
mist, light rain

TAF: VIBR 240500Z 2406/2415 00000KT 4000 BR -RA SCT020 SCT050

Weather observations and forecasts of more than 4000 airports (METAR and TAF reports).

The available stations are represented by yellow and red dots on the map.

Hover mouse over dot to see the name of the station.

Then click to see weather observations and forecasts.

To change the map : click on the green buttons with a black cross to zoom in, on the green button with a dash to zoom out, or on the green arrows for adjacent maps.


METAR-TAF: